Time;durP1;ratioP1;P1;durP2;ratioP2;P2;SDS_P1;SDS_P2;PMS_P1;PMS_P2;Temp;Humidity;BMP_temperature;BMP_pressure;BME280_temperature;BME280_humidity;BME280_pressure;Samples;Min_cycle;Max_cycle;Signal;HPM_P1;HPM_P2
2021/11/16 00:02:02;;;;;;;65.80;32.67;;;;;;;12.91;50.77;95665.47;5031223;28;20122;-73
2021/11/16 00:04:27;;;;;;;64.68;32.00;;;;;;;12.91;50.65;95660.13;5030901;28;20024;-72
2021/11/16 00:06:53;;;;;;;66.10;32.63;;;;;;;13.01;50.69;95670.56;5031067;28;20025;-73
2021/11/16 00:09:20;;;;;;;67.93;33.17;;;;;;;13.00;50.54;95668.19;5031002;28;20030;-73
2021/11/16 00:11:47;;;;;;;65.50;32.53;;;;;;;12.96;50.34;95667.22;5031390;28;20104;-72
2021/11/16 00:14:12;;;;;;;66.93;32.45;;;;;;;12.94;50.44;95667.50;5011787;22;20035;-64
2021/11/16 00:16:39;;;;;;;71.53;33.35;;;;;;;12.90;50.39;95665.78;4995662;28;20094;-63
2021/11/16 00:19:09;;;;;;;62.00;31.40;;;;;;;13.04;50.45;95665.69;4989402;28;20033;-64
2021/11/16 00:21:34;;;;;;;73.30;33.95;;;;;;;13.00;50.45;95666.31;4989553;28;20027;-64
2021/11/16 00:24:07;;;;;;;76.85;33.35;;;;;;;12.99;50.26;95670.06;4990421;28;20074;-64
2021/11/16 00:26:32;;;;;;;73.82;34.78;;;;;;;13.02;50.58;95674.00;4991137;28;20057;-64
2021/11/16 00:28:58;;;;;;;77.30;36.33;;;;;;;12.83;50.24;95655.53;4988755;28;20048;-63
2021/11/16 00:31:23;;;;;;;73.78;35.05;;;;;;;12.84;50.64;95656.31;4995007;28;20081;-64
2021/11/16 00:33:49;;;;;;;69.88;34.60;;;;;;;12.85;50.68;95658.69;4990424;28;20032;-62
2021/11/16 00:36:15;;;;;;;76.07;35.28;;;;;;;13.00;50.61;95669.00;4990620;28;20045;-64
2021/11/16 00:38:41;;;;;;;77.50;35.78;;;;;;;13.02;50.29;95674.00;4990797;28;20191;-64
2021/11/16 00:41:07;;;;;;;71.70;33.15;;;;;;;13.05;50.59;95670.75;4990399;28;20353;-63
2021/11/16 00:43:33;;;;;;;79.10;34.30;;;;;;;13.02;50.60;95674.00;4990131;28;20563;-64
2021/11/16 00:45:58;;;;;;;82.38;36.75;;;;;;;12.98;50.45;95651.69;4997267;28;20391;-63
2021/11/16 00:48:25;;;;;;;74.85;34.92;;;;;;;12.93;50.31;95639.25;4991134;28;20022;-65
2021/11/16 00:50:56;;;;;;;67.95;33.90;;;;;;;13.11;50.47;95661.50;4990231;28;20026;-65
2021/11/16 00:53:28;;;;;;;85.57;36.28;;;;;;;13.12;50.50;95667.63;4990103;28;20480;-64
2021/11/16 00:55:54;;;;;;;73.88;34.55;;;;;;;13.15;50.30;95661.66;4990644;28;20037;-63
2021/11/16 00:58:20;;;;;;;75.53;35.90;;;;;;;13.13;50.25;95663.84;4990026;28;20026;-63
2021/11/16 01:00:45;;;;;;;77.43;36.58;;;;;;;13.10;50.46;95662.56;4990007;28;20022;-64
2021/11/16 01:03:12;;;;;;;78.18;35.97;;;;;;;13.11;50.52;95663.38;4989949;28;20038;-65
2021/11/16 01:05:39;;;;;;;84.45;36.33;;;;;;;13.12;50.51;95673.75;4990434;28;20033;-63
2021/11/16 01:08:06;;;;;;;77.25;35.28;;;;;;;13.04;50.65;95660.34;4990280;28;20106;-64
2021/11/16 01:10:32;;;;;;;72.10;33.30;;;;;;;13.06;50.56;95663.53;4989826;28;20034;-64
2021/11/16 01:12:58;;;;;;;75.57;36.33;;;;;;;13.06;50.74;95666.97;4989941;28;20069;-64
2021/11/16 01:15:24;;;;;;;86.65;36.78;;;;;;;13.04;50.66;95669.13;4989488;28;20026;-64
2021/11/16 01:17:50;;;;;;;97.32;34.88;;;;;;;13.03;50.52;95667.56;4994850;28;20399;-64
2021/11/16 01:20:17;;;;;;;65.65;32.40;;;;;;;12.95;50.42;95671.78;4988351;28;20034;-63
2021/11/16 01:22:45;;;;;;;66.53;32.22;;;;;;;12.92;50.80;95671.59;4988488;28;20026;-65
2021/11/16 01:25:11;;;;;;;70.55;34.00;;;;;;;12.83;50.83;95665.41;4990068;28;20101;-64
2021/11/16 01:27:38;;;;;;;73.32;33.10;;;;;;;12.92;50.91;95680.41;4990254;28;20114;-63
2021/11/16 01:30:08;;;;;;;122.68;36.33;;;;;;;12.92;50.79;95669.72;4989112;28;20387;-64
2021/11/16 01:35:09;;;;;;;67.93;31.48;;;;;;;12.92;50.78;95661.69;4990239;28;20049;-63
2021/11/16 01:37:36;;;;;;;65.63;33.05;;;;;;;12.85;50.80;95649.91;4989995;28;20085;-64
2021/11/16 01:40:05;;;;;;;67.70;32.15;;;;;;;12.91;50.85;95668.13;4989830;28;20100;-63
2021/11/16 01:42:31;;;;;;;70.72;32.13;;;;;;;12.96;50.68;95670.69;4988389;28;20085;-63
2021/11/16 01:44:57;;;;;;;82.93;34.13;;;;;;;12.80;51.03;95645.47;4994545;28;20030;-63
2021/11/16 01:47:22;;;;;;;80.78;32.97;;;;;;;12.82;50.96;95645.16;4994592;28;20109;-64
2021/11/16 01:49:48;;;;;;;62.08;31.35;;;;;;;12.83;51.14;95644.06;4993543;28;20069;-63
2021/11/16 01:52:13;;;;;;;72.20;33.50;;;;;;;12.93;50.94;95660.59;4993890;28;20065;-63
2021/11/16 01:54:39;;;;;;;79.43;34.25;;;;;;;12.79;50.77;95648.41;4993909;28;20034;-64
2021/11/16 01:57:05;;;;;;;91.28;34.42;;;;;;;12.80;51.21;95677.50;4993911;28;20034;-64
2021/11/16 01:59:31;;;;;;;85.60;32.80;;;;;;;12.81;51.57;95684.41;4991734;28;20066;-63
2021/11/16 02:01:57;;;;;;;65.60;32.03;;;;;;;12.85;51.16;95674.72;4997797;28;20097;-64
2021/11/16 02:04:23;;;;;;;70.65;30.88;;;;;;;12.84;51.29;95669.66;4993537;28;20069;-64
2021/11/16 02:06:48;;;;;;;65.95;30.50;;;;;;;12.80;51.38;95672.16;4993519;28;20073;-64
2021/11/16 02:09:16;;;;;;;58.40;30.55;;;;;;;12.81;51.38;95651.59;4991929;28;20018;-64
2021/11/16 02:11:42;;;;;;;63.17;30.85;;;;;;;12.65;51.20;95657.31;4993568;28;20034;-64
2021/11/16 02:14:11;;;;;;;66.55;31.50;;;;;;;12.74;51.14;95668.84;4992463;28;20080;-62
2021/11/16 02:16:37;;;;;;;74.28;32.65;;;;;;;12.76;51.40;95668.53;4996538;28;20117;-64
2021/11/16 02:19:08;;;;;;;60.40;31.33;;;;;;;11.59;53.77;95671.84;4992922;28;20020;-64
2021/11/16 02:21:34;;;;;;;55.40;28.60;;;;;;;11.78;53.69;95668.31;4993159;28;20022;-63
2021/11/16 02:24:00;;;;;;;60.95;29.95;;;;;;;11.66;53.43;95655.47;4992954;28;20037;-62
2021/11/16 02:26:26;;;;;;;69.32;31.48;;;;;;;11.63;53.87;95669.41;4993137;28;20399;-64
2021/11/16 02:28:52;;;;;;;73.85;31.05;;;;;;;10.96;55.43;95666.41;4992405;28;20109;-65
2021/11/16 02:31:21;;;;;;;65.80;28.65;;;;;;;9.66;59.50;95651.00;4997440;28;20022;-64
2021/11/16 02:33:47;;;;;;;69.50;30.73;;;;;;;9.83;60.50;95652.13;4992645;28;20030;-64
2021/11/16 02:36:13;;;;;;;63.20;29.02;;;;;;;10.79;57.75;95665.06;4992844;28;20033;-63
2021/11/16 02:38:40;;;;;;;57.38;27.80;;;;;;;11.39;56.76;95673.03;4992915;28;20026;-67
2021/11/16 02:41:06;;;;;;;54.80;27.58;;;;;;;11.69;55.24;95665.53;4992614;28;20030;-64
2021/11/16 02:43:34;;;;;;;59.30;27.73;;;;;;;11.75;54.62;95655.56;4992632;28;20023;-64
2021/11/16 02:46:02;;;;;;;59.90;27.15;;;;;;;10.24;58.03;95664.09;4997700;28;20559;-63
2021/11/16 02:48:28;;;;;;;61.78;28.90;;;;;;;10.36;57.77;95657.22;4992779;28;20033;-64
2021/11/16 02:51:00;;;;;;;52.25;25.10;;;;;;;11.27;56.59;95678.06;4992291;28;20530;-64
2021/11/16 02:53:25;;;;;;;50.78;25.17;;;;;;;11.50;55.27;95673.63;4992482;28;20396;-63
2021/11/16 02:55:52;;;;;;;48.72;23.63;;;;;;;10.49;56.38;95665.53;4992374;28;20023;-63
2021/11/16 02:58:19;;;;;;;42.53;22.73;;;;;;;10.26;57.34;95668.03;4992847;28;20392;-64
2021/11/16 03:00:50;;;;;;;48.15;25.38;;;;;;;11.16;56.68;95682.00;4995053;28;20491;-63
2021/11/16 03:03:17;;;;;;;41.83;22.13;;;;;;;11.41;55.28;95670.88;4996687;28;20028;-63
2021/11/16 03:05:43;;;;;;;49.88;23.95;;;;;;;11.12;55.47;95671.16;4992437;28;20030;-64
2021/11/16 03:08:21;;;;;;;44.38;23.23;;;;;;;11.47;54.76;95670.78;4992772;28;20031;-63
2021/11/16 03:10:48;;;;;;;45.75;23.08;;;;;;;11.71;54.64;95666.03;4992476;28;20391;-64
2021/11/16 03:13:15;;;;;;;47.63;24.30;;;;;;;11.83;53.91;95661.00;4992223;28;20064;-63
2021/11/16 03:15:41;;;;;;;45.67;24.05;;;;;;;11.67;54.32;95670.38;4996507;28;20089;-63
2021/11/16 03:18:07;;;;;;;52.35;25.40;;;;;;;11.35;54.13;95681.91;4995743;28;20031;-63
2021/11/16 03:20:33;;;;;;;49.47;23.60;;;;;;;11.59;54.91;95668.41;4990646;28;20034;-64
2021/11/16 03:23:10;;;;;;;50.90;23.85;;;;;;;10.71;56.08;95659.63;4990564;28;20038;-63
2021/11/16 03:25:40;;;;;;;46.28;22.92;;;;;;;10.62;56.65;95668.25;4992201;28;20045;-64
2021/11/16 03:28:09;;;;;;;51.28;25.10;;;;;;;10.80;56.07;95681.81;4992529;28;20025;-64
2021/11/16 03:30:35;;;;;;;42.47;23.40;;;;;;;11.07;55.81;95678.44;4996070;28;20034;-64
2021/11/16 03:33:01;;;;;;;52.13;24.92;;;;;;;11.42;55.83;95685.00;4996517;28;20094;-63
2021/11/16 03:35:27;;;;;;;48.67;23.35;;;;;;;11.59;54.81;95681.72;4992226;28;20027;-63
2021/11/16 03:37:57;;;;;;;45.83;22.48;;;;;;;11.01;55.76;95682.28;4991037;28;20037;-63
2021/11/16 03:40:23;;;;;;;68.28;26.05;;;;;;;11.45;54.24;95684.38;4991496;28;20045;-63
2021/11/16 03:42:50;;;;;;;47.28;23.23;;;;;;;11.71;54.34;95685.47;4991611;28;20092;-63
2021/11/16 03:45:18;;;;;;;45.17;23.85;;;;;;;11.29;54.55;95678.56;4995930;28;20022;-62
2021/11/16 03:47:45;;;;;;;51.83;23.88;;;;;;;9.36;60.67;95680.28;4995656;28;20037;-63
2021/11/16 03:50:15;;;;;;;54.28;24.50;;;;;;;9.93;60.09;95679.59;4990310;28;20022;-63
2021/11/16 03:52:42;;;;;;;56.10;25.58;;;;;;;10.61;58.21;95682.66;4991374;28;20058;-63
2021/11/16 03:55:12;;;;;;;55.80;26.00;;;;;;;10.62;57.81;95681.56;4991525;28;20109;-63
2021/11/16 03:57:38;;;;;;;52.67;24.88;;;;;;;10.65;58.01;95686.31;4991582;28;20026;-63
2021/11/16 04:00:08;;;;;;;60.03;26.77;;;;;;;10.88;57.34;95689.13;4995317;28;20587;-62
2021/11/16 04:02:33;;;;;;;54.85;25.33;;;;;;;9.73;59.60;95686.00;4992562;28;20029;-62
2021/11/16 04:04:58;;;;;;;52.47;25.40;;;;;;;9.27;61.37;95671.38;4991072;28;20010;-62
2021/11/16 04:07:24;;;;;;;66.22;27.58;;;;;;;10.25;59.05;95671.75;4990530;28;20029;-62
2021/11/16 04:09:50;;;;;;;60.00;26.00;;;;;;;9.74;60.42;95675.06;4991010;28;20065;-62
2021/11/16 04:12:16;;;;;;;60.38;26.25;;;;;;;8.98;62.96;95673.25;4991166;28;20161;-63
2021/11/16 04:14:42;;;;;;;59.10;25.30;;;;;;;8.41;64.14;95662.34;4992131;28;20539;-63
2021/11/16 04:17:07;;;;;;;64.95;27.02;;;;;;;9.73;61.22;95681.47;4998291;28;20018;-63
2021/11/16 04:19:33;;;;;;;54.88;25.80;;;;;;;9.62;61.14;95683.47;4990678;28;20030;-64
2021/11/16 04:21:58;;;;;;;55.55;25.08;;;;;;;9.71;60.51;95683.59;4991028;28;20032;-63
2021/11/16 04:24:24;;;;;;;58.30;25.85;;;;;;;10.11;59.79;95674.31;4990732;28;20042;-64
2021/11/16 04:26:49;;;;;;;53.65;25.85;;;;;;;10.75;58.81;95658.75;4991044;28;20141;-64
2021/11/16 04:29:15;;;;;;;55.72;25.00;;;;;;;9.85;60.44;95673.88;4990147;28;20680;-64
2021/11/16 04:31:40;;;;;;;54.95;24.60;;;;;;;10.00;59.95;95677.41;4995247;28;20033;-62
2021/11/16 04:34:08;;;;;;;60.00;25.70;;;;;;;10.79;58.57;95688.22;4990231;28;20026;-64
2021/11/16 04:36:34;;;;;;;63.05;27.50;;;;;;;11.18;57.39;95688.59;4990926;28;20070;-63
2021/11/16 04:39:01;;;;;;;49.83;24.42;;;;;;;11.23;56.60;95690.38;4990394;28;20041;-64
2021/11/16 04:41:27;;;;;;;59.97;25.17;;;;;;;11.02;55.97;95694.50;4990593;28;20097;-63
2021/11/16 04:43:56;;;;;;;54.80;24.85;;;;;;;10.19;58.10;95678.22;4990418;28;20468;-62
2021/11/16 04:46:23;;;;;;;56.65;26.50;;;;;;;10.77;57.54;95683.19;4994811;28;20105;-62
2021/11/16 04:49:05;;;;;;;49.30;23.05;;;;;;;10.78;57.36;95683.97;4990519;28;20105;-64
2021/11/16 04:52:01;;;;;;;52.00;24.42;;;;;;;10.73;57.36;95689.38;4971158;28;20105;-64
2021/11/16 05:02:47;;;;;;;50.97;23.87;;;;;;;9.93;58.96;95677.75;4985939;28;20448;-62
2021/11/16 05:05:19;;;;;;;48.72;23.63;;;;;;;10.01;58.91;95682.41;4989455;28;20340;-63
2021/11/16 05:07:53;;;;;;;;;;;;;;;9.88;59.42;95677.84;4990858;28;20404;-63
2021/11/16 05:10:19;;;;;;;44.33;21.77;;;;;;;9.82;59.92;95685.06;4989946;28;19921;-62
2021/11/16 05:12:45;;;;;;;43.42;20.80;;;;;;;8.99;62.39;95690.75;4989983;28;20578;-62
2021/11/16 05:15:16;;;;;;;43.13;21.67;;;;;;;9.42;61.17;95681.03;4988323;28;20022;-63
2021/11/16 05:17:43;;;;;;;43.87;22.17;;;;;;;9.91;60.10;95682.56;4994533;28;20033;-63
2021/11/16 05:20:10;;;;;;;42.13;22.00;;;;;;;9.07;61.84;95685.66;4989666;28;20270;-63
2021/11/16 05:22:36;;;;;;;45.05;22.63;;;;;;;9.78;60.27;95688.59;4989845;28;20065;-63
2021/11/16 05:25:03;;;;;;;45.65;21.08;;;;;;;9.03;62.64;95691.78;4990257;28;20110;-63
2021/11/16 05:27:29;;;;;;;41.30;21.33;;;;;;;9.81;61.24;95702.06;4990199;28;20030;-63
2021/11/16 05:29:54;;;;;;;42.30;20.50;;;;;;;9.08;62.21;95697.84;4989204;28;20435;-63
2021/11/16 05:32:20;;;;;;;40.30;21.63;;;;;;;9.88;60.37;95707.06;4994257;28;20502;-62
2021/11/16 05:34:46;;;;;;;37.70;20.25;;;;;;;9.87;59.81;95697.47;4989710;28;20477;-61
2021/11/16 05:37:12;;;;;;;44.00;20.17;;;;;;;9.36;60.78;95693.56;4989868;28;20472;-63
2021/11/16 05:39:37;;;;;;;42.30;19.45;;;;;;;9.33;60.88;95709.28;4989740;28;20050;-63
2021/11/16 05:42:03;;;;;;;33.25;19.58;;;;;;;9.97;59.17;95699.22;4989889;28;20033;-63
2021/11/16 05:44:31;;;;;;;38.03;19.45;;;;;;;9.77;60.38;95698.41;4987745;28;20396;-64
2021/11/16 05:46:57;;;;;;;39.17;20.63;;;;;;;10.72;58.19;95696.56;4989366;28;20420;-63
2021/11/16 05:49:22;;;;;;;42.08;20.20;;;;;;;10.80;57.22;95701.25;4989451;28;20104;-65
2021/11/16 05:51:48;;;;;;;37.85;19.20;;;;;;;11.23;56.89;95700.25;4988625;28;20057;-64
2021/11/16 05:54:19;;;;;;;34.20;19.52;;;;;;;11.25;55.35;95708.72;4989550;28;20113;-63
2021/11/16 05:56:45;;;;;;;29.43;18.00;;;;;;;11.32;55.02;95691.28;4989743;28;20031;-62
2021/11/16 05:59:11;;;;;;;29.90;17.73;;;;;;;11.37;54.35;95706.38;4989362;28;20035;-62
2021/11/16 06:01:36;;;;;;;31.75;17.25;;;;;;;10.79;55.10;95701.50;4993424;28;20032;-62
2021/11/16 06:04:02;;;;;;;28.40;16.70;;;;;;;11.03;55.34;95690.75;4989515;28;20097;-63
2021/11/16 06:06:31;;;;;;;30.02;16.95;;;;;;;10.40;56.40;95687.50;4989732;28;20069;-63
2021/11/16 06:08:59;;;;;;;28.90;16.83;;;;;;;11.19;54.94;95713.34;4989346;28;20600;-64
2021/11/16 06:11:26;;;;;;;24.15;15.75;;;;;;;10.36;56.29;95705.09;4989584;28;20030;-63
2021/11/16 06:13:53;;;;;;;23.23;15.55;;;;;;;10.47;55.77;95689.00;4999693;23;20088;-67
2021/11/16 06:16:19;;;;;;;24.80;15.52;;;;;;;10.01;56.81;95684.28;4993628;28;20029;-70
2021/11/16 06:18:59;;;;;;;21.48;14.25;;;;;;;10.34;57.29;95698.50;4994151;28;20420;-65
2021/11/16 06:21:26;;;;;;;20.67;13.90;;;;;;;10.66;55.75;95689.75;4988891;28;20034;-67
2021/11/16 06:23:53;;;;;;;24.60;15.18;;;;;;;11.09;54.71;95682.38;4989315;28;20041;-65
2021/11/16 06:26:20;;;;;;;23.25;15.65;;;;;;;11.37;54.54;95709.06;4989584;28;20033;-66
2021/11/16 06:28:45;;;;;;;18.13;14.07;;;;;;;10.39;55.99;95691.22;4989710;28;20034;-65
2021/11/16 06:31:11;;;;;;;22.35;14.65;;;;;;;10.40;55.74;95682.16;4996571;28;20034;-65
2021/11/16 06:33:37;;;;;;;23.30;15.13;;;;;;;10.58;55.43;95677.09;4997170;28;20022;-66
2021/11/16 06:36:03;;;;;;;23.50;14.90;;;;;;;10.69;54.87;95691.81;4991735;28;20030;-65
2021/11/16 06:38:29;;;;;;;22.48;14.43;;;;;;;10.80;55.20;95700.44;4991851;28;20046;-66
2021/11/16 06:40:54;;;;;;;25.20;15.50;;;;;;;10.86;54.62;95712.59;4988862;28;20026;-60
2021/11/16 06:43:28;;;;;;;21.65;14.30;;;;;;;11.31;56.51;95716.34;4991186;28;20060;-61
2021/11/16 06:45:56;;;;;;;18.13;13.13;;;;;;;11.78;54.04;95701.06;4995623;28;20696;-65
2021/11/16 06:48:22;;;;;;;16.92;13.52;;;;;;;11.92;52.92;95691.19;4997181;28;20072;-68
2021/11/16 06:50:48;;;;;;;16.67;13.23;;;;;;;12.03;52.28;95707.78;4990958;28;20484;-71
2021/11/16 06:53:21;;;;;;;19.08;12.70;;;;;;;11.87;51.18;95674.50;4991168;28;20030;-72
2021/11/16 06:55:46;;;;;;;17.83;12.98;;;;;;;12.09;51.14;95714.59;4992759;28;20082;-64
2021/11/16 06:58:12;;;;;;;15.00;12.13;;;;;;;12.08;51.46;95673.03;4991502;28;20109;-68
2021/11/16 07:00:37;;;;;;;13.65;11.30;;;;;;;12.27;50.87;95696.84;4991369;28;20030;-68
2021/11/16 07:03:04;;;;;;;14.65;12.15;;;;;;;11.78;50.58;95657.63;5000113;28;20403;-67
2021/11/16 07:05:30;;;;;;;14.93;12.48;;;;;;;11.53;51.55;95721.00;4984530;28;20026;-66
2021/11/16 07:07:57;;;;;;;13.98;12.40;;;;;;;11.70;51.56;95704.41;4991636;28;20118;-69
2021/11/16 07:10:26;;;;;;;20.23;12.50;;;;;;;11.80;51.46;95677.56;4990651;28;20032;-63
2021/11/16 07:12:52;;;;;;;15.38;12.23;;;;;;;11.92;51.27;95701.84;4991115;28;20023;-72
2021/11/16 07:15:21;;;;;;;18.17;12.68;;;;;;;12.11;51.13;95690.28;4990519;28;20037;-65
2021/11/16 07:17:48;;;;;;;16.92;11.45;;;;;;;12.42;50.47;95720.53;4999114;28;20022;-66
2021/11/16 07:20:14;;;;;;;13.88;12.00;;;;;;;12.43;50.19;95707.97;4993870;28;20015;-68
2021/11/16 07:22:41;;;;;;;14.77;11.63;;;;;;;12.45;49.93;95727.16;4990584;28;20049;-76
2021/11/16 07:25:12;;;;;;;17.00;11.57;;;;;;;11.99;49.74;95692.69;4992172;28;20026;-66
2021/11/16 07:27:48;;;;;;;15.65;11.80;;;;;;;12.44;50.16;95737.03;4992182;28;20030;-66
2021/11/16 07:30:17;;;;;;;16.05;11.00;;;;;;;12.65;49.91;95748.06;4991428;28;20035;-66
2021/11/16 07:32:52;;;;;;;13.93;11.30;;;;;;;11.79;50.46;95742.63;4994938;28;20073;-66
2021/11/16 07:35:23;;;;;;;14.48;10.98;;;;;;;11.82;50.28;95706.59;4991845;28;20022;-67
2021/11/16 07:37:53;;;;;;;14.80;10.93;;;;;;;11.77;50.96;95742.13;4992132;28;20025;-66
2021/11/16 07:40:21;;;;;;;16.30;12.52;;;;;;;11.61;50.24;95754.94;4991555;28;20031;-67
2021/11/16 07:43:04;;;;;;;12.35;10.55;;;;;;;10.24;54.10;95736.66;4991717;28;20030;-65
2021/11/16 07:45:40;;;;;;;13.65;10.93;;;;;;;10.18;53.78;95739.63;4991315;28;20436;-66
2021/11/16 07:48:12;;;;;;;12.82;11.52;;;;;;;10.49;53.21;95740.81;4999192;28;20714;-66
2021/11/16 07:50:59;;;;;;;14.00;11.25;;;;;;;9.53;56.66;95754.22;4989926;28;20480;-71
2021/11/16 07:53:29;;;;;;;11.63;9.90;;;;;;;9.74;55.16;95735.38;4991416;28;20026;-65
2021/11/16 07:55:58;;;;;;;13.70;11.07;;;;;;;10.27;54.80;95746.69;4991567;28;20026;-65
2021/11/16 07:58:30;;;;;;;14.00;11.32;;;;;;;10.15;54.94;95744.44;4991499;28;20026;-63
2021/11/16 08:00:57;;;;;;;12.60;10.73;;;;;;;9.78;55.31;95739.84;4993027;28;20018;-64
2021/11/16 08:03:26;;;;;;;14.10;11.60;;;;;;;9.16;57.51;95715.00;4996149;28;20030;-65
2021/11/16 08:06:06;;;;;;;13.57;11.07;;;;;;;9.37;57.55;95750.13;4991299;28;20558;-64
2021/11/16 08:08:38;;;;;;;12.98;10.38;;;;;;;9.99;55.72;95727.13;4990055;28;20022;-64
2021/11/16 08:11:13;;;;;;;13.48;10.82;;;;;;;9.28;57.10;95765.88;4990941;28;20433;-64
2021/11/16 08:13:54;;;;;;;15.70;11.93;;;;;;;9.52;57.42;95765.09;4990701;28;20073;-64
2021/11/16 08:16:21;;;;;;;12.95;11.02;;;;;;;10.42;54.81;95759.00;4989269;28;20030;-63
2021/11/16 08:18:49;;;;;;;12.93;10.75;;;;;;;8.49;59.62;95777.59;4995414;28;20018;-63
2021/11/16 08:21:18;;;;;;;14.75;12.15;;;;;;;8.62;60.19;95758.44;4989099;28;20472;-64
2021/11/16 08:24:06;;;;;;;14.88;11.38;;;;;;;8.06;61.71;95761.38;4989310;28;20030;-64
2021/11/16 08:26:39;;;;;;;15.57;11.60;;;;;;;7.54;63.54;95752.84;4990988;28;20058;-64
2021/11/16 08:29:07;;;;;;;15.40;12.25;;;;;;;8.55;61.53;95760.63;4989164;28;20026;-64
2021/11/16 08:31:42;;;;;;;18.95;12.00;;;;;;;8.02;62.64;95777.03;4990827;28;20026;-64
2021/11/16 08:34:08;;;;;;;13.32;11.18;;;;;;;7.79;62.44;95756.47;4993267;28;20015;-64
2021/11/16 08:36:45;;;;;;;14.25;11.32;;;;;;;7.97;62.75;95769.09;4991172;28;20117;-65
2021/11/16 08:39:11;;;;;;;17.75;11.82;;;;;;;8.37;62.13;95766.56;4990454;28;20192;-64
2021/11/16 08:41:39;;;;;;;16.98;12.07;;;;;;;8.75;60.77;95771.09;4990541;28;20105;-64
2021/11/16 08:44:21;;;;;;;15.43;11.10;;;;;;;8.61;60.66;95761.38;4990420;28;20081;-64
2021/11/16 08:46:49;;;;;;;16.95;11.70;;;;;;;8.61;61.43;95764.03;4990906;28;20028;-64
2021/11/16 08:49:32;;;;;;;16.20;11.90;;;;;;;9.26;59.29;95768.00;4991027;28;20045;-64
2021/11/16 08:51:59;;;;;;;;;;;;;;;8.37;61.73;95761.25;4990583;28;20555;-64
2021/11/16 08:54:36;;;;;;;17.88;11.63;;;;;;;9.49;58.75;95755.84;4988988;28;19996;-64
2021/11/16 08:57:15;;;;;;;16.13;12.10;;;;;;;9.00;59.75;95772.72;4990597;28;20041;-65
2021/11/16 08:59:40;;;;;;;18.75;12.15;;;;;;;8.72;60.58;95763.66;4999591;28;20057;-64
2021/11/16 09:02:07;;;;;;;15.07;11.93;;;;;;;8.72;61.34;95765.53;4999141;28;20041;-64
2021/11/16 09:04:37;;;;;;;14.23;11.30;;;;;;;8.58;61.71;95774.09;4989824;28;20033;-65
2021/11/16 09:07:15;;;;;;;16.05;12.23;;;;;;;9.42;58.85;95768.66;4990285;28;20101;-64
2021/11/16 09:10:06;;;;;;;15.20;11.65;;;;;;;10.06;57.87;95764.75;4990149;28;20068;-64
2021/11/16 09:12:37;;;;;;;13.60;10.32;;;;;;;8.41;61.96;95779.00;4988994;28;20558;-63
2021/11/16 09:15:05;;;;;;;16.38;11.27;;;;;;;8.15;63.33;95785.47;4990061;28;20078;-64
2021/11/16 09:17:30;;;;;;;14.23;11.52;;;;;;;8.27;63.19;95778.75;4989400;28;20022;-64
2021/11/16 09:20:13;;;;;;;16.15;11.23;;;;;;;7.95;63.19;95775.75;4993036;28;20532;-64
2021/11/16 09:22:38;;;;;;;15.73;11.68;;;;;;;8.20;62.76;95769.53;4970699;28;20163;-64
2021/11/16 09:25:30;;;;;;;13.77;10.48;;;;;;;8.42;62.10;95785.09;4969447;28;20071;-65
2021/11/16 09:28:09;;;;;;;15.10;10.87;;;;;;;8.89;61.01;95776.53;4970828;28;20063;-64
2021/11/16 09:30:39;;;;;;;15.63;11.40;;;;;;;8.70;61.61;95771.13;4969862;28;20035;-64
2021/11/16 09:33:12;;;;;;;14.20;10.82;;;;;;;8.00;62.75;95771.22;4994084;28;20022;-66
2021/11/16 09:35:45;;;;;;;15.50;11.95;;;;;;;8.15;62.85;95751.00;4983140;28;20027;-65
2021/11/16 09:38:10;;;;;;;15.90;12.40;;;;;;;8.45;62.14;95761.47;4990028;28;20026;-65
2021/11/16 09:40:36;;;;;;;13.50;11.05;;;;;;;9.93;58.64;95777.94;4988577;28;20026;-65
2021/11/16 09:43:03;;;;;;;16.25;12.90;;;;;;;10.17;56.75;95749.47;4988268;28;20077;-64
2021/11/16 09:45:30;;;;;;;16.35;12.48;;;;;;;10.10;56.69;95755.13;4989908;28;20023;-64
2021/11/16 09:47:56;;;;;;;14.50;11.82;;;;;;;10.90;56.21;95767.63;4993002;28;20054;-66
2021/11/16 09:50:25;;;;;;;14.80;11.45;;;;;;;10.02;55.69;95769.03;4989371;28;20114;-66
2021/11/16 09:52:56;;;;;;;15.05;11.50;;;;;;;9.18;58.72;95781.88;4988267;28;20479;-65
2021/11/16 09:55:36;;;;;;;13.68;10.02;;;;;;;8.45;60.30;95785.34;4988591;28;20038;-66
2021/11/16 09:58:05;;;;;;;12.25;9.48;;;;;;;9.26;58.47;95783.91;4989847;28;20031;-65
2021/11/16 10:00:39;;;;;;;11.57;9.55;;;;;;;8.26;61.01;95787.78;4987894;28;20431;-65
2021/11/16 10:03:06;;;;;;;11.27;9.68;;;;;;;9.18;59.12;95779.22;4990699;28;20030;-66
2021/11/16 10:05:39;;;;;;;13.50;9.77;;;;;;;8.34;61.22;95781.91;4996557;28;20110;-65
2021/11/16 10:08:06;;;;;;;13.32;10.43;;;;;;;8.27;60.97;95786.72;4992236;28;20030;-64
2021/11/16 10:10:35;;;;;;;11.02;9.70;;;;;;;9.01;59.18;95757.63;4992953;28;20034;-65
2021/11/16 10:13:07;;;;;;;13.90;9.50;;;;;;;9.25;57.12;95757.66;4991734;28;20725;-64
2021/11/16 10:15:33;;;;;;;;;;;;;;;8.99;59.17;95773.00;4992480;28;20022;-66
2021/11/16 10:18:00;;;;;;;11.75;10.05;;;;;;;9.56;56.74;95739.56;4997164;28;20016;-64
2021/11/16 10:20:30;;;;;;;11.13;9.65;;;;;;;9.34;57.26;95758.63;4995671;28;20030;-63
2021/11/16 10:23:00;;;;;;;13.32;10.55;;;;;;;9.64;57.21;95757.53;4992774;28;20110;-63
2021/11/16 10:25:29;;;;;;;11.90;10.35;;;;;;;10.75;54.55;95754.53;4993180;28;20026;-63
2021/11/16 10:27:56;;;;;;;13.73;11.57;;;;;;;8.72;59.56;95768.97;4993234;28;20023;-63
2021/11/16 10:30:31;;;;;;;13.32;10.55;;;;;;;8.85;59.03;95748.97;4991393;28;20049;-63
2021/11/16 10:33:09;;;;;;;14.90;11.57;;;;;;;8.54;60.31;95772.28;4995681;28;20072;-63
2021/11/16 10:35:46;;;;;;;12.25;10.57;;;;;;;9.47;58.34;95749.22;4990226;28;20019;-63
2021/11/16 10:38:16;;;;;;;16.13;11.43;;;;;;;10.56;55.80;95767.06;4993005;28;20372;-63
2021/11/16 10:40:42;;;;;;;16.90;11.20;;;;;;;8.73;59.81;95754.63;4992410;28;20030;-63
2021/11/16 10:43:07;;;;;;;16.67;10.95;;;;;;;7.64;63.03;95738.78;4991207;28;20535;-64
2021/11/16 10:45:42;;;;;;;13.65;10.77;;;;;;;8.19;61.59;95747.53;4992887;28;20033;-65
2021/11/16 10:48:09;;;;;;;16.08;10.27;;;;;;;8.09;62.67;95755.56;4996861;28;20380;-62
2021/11/16 10:50:36;;;;;;;13.55;11.02;;;;;;;8.92;60.24;95756.63;4992097;28;20019;-64
2021/11/16 10:53:07;;;;;;;16.10;11.30;;;;;;;8.56;61.77;95754.25;4992234;28;20031;-65
2021/11/16 10:55:34;;;;;;;16.25;12.60;;;;;;;9.62;59.03;95725.13;4991438;28;20037;-64
2021/11/16 10:58:06;;;;;;;15.70;12.63;;;;;;;10.06;56.22;95735.50;4992551;28;20392;-64
2021/11/16 11:01:01;;;;;;;19.30;12.98;;;;;;;8.42;61.33;95747.97;4991066;28;20479;-64
2021/11/16 11:03:32;;;;;;;15.25;12.13;;;;;;;9.14;60.03;95737.59;4996171;28;20045;-65
2021/11/16 11:06:19;;;;;;;14.52;11.85;;;;;;;8.83;59.75;95735.22;4996719;28;20023;-64
2021/11/16 11:08:58;;;;;;;16.23;12.00;;;;;;;8.42;62.25;95747.97;4971627;28;20018;-63
2021/11/16 11:11:39;;;;;;;16.38;11.35;;;;;;;8.06;63.66;95740.19;4972921;28;20027;-64
2021/11/16 11:14:13;;;;;;;18.70;11.23;;;;;;;8.79;61.24;95736.81;4971212;28;20085;-63
2021/11/16 11:16:40;;;;;;;14.82;11.25;;;;;;;8.42;62.91;95740.00;4977830;28;20416;-63
2021/11/16 11:19:09;;;;;;;15.05;11.50;;;;;;;8.62;61.86;95731.91;4999299;28;20036;-63
2021/11/16 11:21:41;;;;;;;17.90;12.45;;;;;;;8.06;63.51;95729.59;4992033;28;20021;-63
2021/11/16 11:24:10;;;;;;;12.95;10.98;;;;;;;9.13;60.41;95710.28;4991777;28;20073;-63
2021/11/16 11:26:43;;;;;;;16.05;12.73;;;;;;;10.03;58.34;95725.47;4992093;28;20022;-63
2021/11/16 11:29:29;;;;;;;14.63;12.02;;;;;;;10.65;56.05;95718.25;4990164;28;20057;-64
2021/11/16 11:32:05;;;;;;;16.08;12.07;;;;;;;10.04;56.58;95712.97;4990030;28;20165;-64
2021/11/16 11:34:52;;;;;;;17.50;11.57;;;;;;;10.43;55.58;95722.56;4988044;28;20037;-64
2021/11/16 11:37:26;;;;;;;19.63;12.38;;;;;;;9.19;59.91;95718.97;4990533;28;20031;-64
2021/11/16 11:40:16;;;;;;;18.58;11.95;;;;;;;9.72;58.34;95718.94;4991269;28;20026;-64
2021/11/16 11:42:44;;;;;;;18.00;12.15;;;;;;;9.48;59.28;95705.66;4991712;28;20031;-63